createdAt,value
2016-08-22T00:00:34.571Z,62.38
2016-08-22T00:02:29.486Z,62.41
2016-08-22T00:04:31.148Z,62.38
2016-08-22T00:05:28.519Z,62.39
2016-08-22T00:06:36.210Z,62.44
2016-08-22T00:07:35.136Z,62.39
2016-08-22T00:08:30.336Z,62.38
2016-08-22T00:09:37.132Z,62.44
2016-08-22T00:10:28.901Z,62.40
2016-08-22T00:11:46.911Z,62.42
2016-08-22T00:12:31.160Z,62.38
2016-08-22T00:13:27.532Z,62.36
2016-08-22T00:14:35.833Z,62.40
2016-08-22T00:15:33.010Z,62.37
2016-08-22T00:16:32.666Z,62.39
2016-08-22T00:17:27.419Z,62.38
2016-08-22T00:18:33.985Z,62.38
2016-08-22T00:19:31.742Z,62.36
2016-08-22T00:20:28.701Z,62.36
2016-08-22T00:21:29.939Z,62.36
2016-08-22T00:22:29.387Z,62.37
2016-08-22T00:23:33.840Z,62.39
2016-08-22T00:24:35.172Z,62.37
2016-08-22T00:26:40.775Z,62.36
2016-08-22T00:27:28.038Z,62.35
2016-08-22T00:28:30.147Z,62.38
2016-08-22T00:29:29.542Z,62.36
2016-08-22T00:30:31.031Z,62.39
2016-08-22T00:31:51.570Z,62.40
2016-08-22T00:32:26.616Z,62.38
2016-08-22T00:34:32.523Z,62.43
2016-08-22T00:35:46.440Z,62.40
2016-08-22T00:36:39.015Z,62.42
2016-08-22T00:37:33.054Z,62.40
2016-08-22T00:38:28.928Z,62.38
2016-08-22T00:39:35.590Z,62.43
2016-08-22T00:40:31.849Z,62.41
2016-08-22T00:41:38.360Z,62.39
2016-08-22T00:42:33.263Z,62.40
2016-08-22T00:43:30.976Z,62.40
2016-08-22T00:44:38.112Z,62.39
2016-08-22T00:45:34.689Z,62.39
2016-08-22T00:46:28.695Z,62.39
2016-08-22T00:47:35.318Z,62.35
2016-08-22T00:48:34.978Z,62.35
2016-08-22T00:49:41.513Z,62.42
2016-08-22T00:50:32.207Z,62.38
2016-08-22T00:51:25.580Z,62.37
2016-08-22T00:52:26.240Z,62.40
2016-08-22T00:53:37.599Z,62.38
2016-08-22T00:54:28.385Z,62.39
2016-08-22T00:55:28.129Z,62.38
2016-08-22T00:56:33.825Z,62.36
2016-08-22T00:57:28.541Z,62.35
2016-08-22T00:58:38.412Z,62.34
2016-08-22T00:59:30.381Z,62.38
2016-08-22T01:00:38.354Z,62.38
2016-08-22T01:01:37.624Z,62.38
2016-08-22T01:02:34.295Z,62.40
2016-08-22T01:03:26.796Z,62.35
2016-08-22T01:04:28.132Z,62.38
2016-08-22T01:05:40.385Z,62.37
2016-08-22T01:06:31.725Z,62.38
2016-08-22T01:07:30.476Z,62.39
2016-08-22T01:08:38.215Z,62.35
2016-08-22T01:09:28.488Z,62.36
2016-08-22T01:10:36.965Z,62.36
2016-08-22T01:11:37.578Z,62.37
2016-08-22T01:13:31.800Z,62.36
2016-08-22T01:14:31.433Z,62.37
2016-08-22T01:15:30.058Z,62.38
2016-08-22T01:16:31.181Z,62.36
2016-08-22T01:17:37.275Z,62.37
2016-08-22T01:18:32.721Z,62.38
2016-08-22T01:22:32.188Z,62.38
2016-08-22T01:23:24.493Z,62.35
2016-08-22T01:24:34.044Z,62.41
2016-08-22T01:25:30.726Z,62.39
2016-08-22T01:26:27.428Z,62.39
2016-08-22T01:27:26.001Z,62.36
2016-08-22T01:28:34.222Z,62.41
2016-08-22T01:29:34.327Z,62.37
2016-08-22T01:30:35.925Z,62.42
2016-08-22T01:31:27.408Z,62.35
2016-08-22T01:33:40.012Z,62.39
2016-08-22T01:34:24.915Z,62.39
2016-08-22T01:35:29.896Z,62.39
2016-08-22T01:36:31.289Z,62.37
2016-08-22T01:37:37.180Z,62.39
2016-08-22T01:38:27.768Z,62.37
2016-08-22T01:39:39.156Z,62.39
2016-08-22T01:40:27.974Z,62.38
2016-08-22T01:41:41.672Z,62.39
2016-08-22T01:42:30.483Z,62.39
2016-08-22T01:43:34.507Z,62.41
2016-08-22T01:44:36.493Z,62.35
2016-08-22T01:45:34.043Z,62.38
2016-08-22T01:46:41.459Z,62.37
2016-08-22T01:47:38.523Z,62.37
2016-08-22T01:48:36.032Z,62.36
2016-08-22T01:49:38.223Z,62.38
2016-08-22T01:50:33.823Z,62.39
2016-08-22T01:51:34.348Z,62.43
2016-08-22T01:52:33.759Z,62.40
2016-08-22T01:53:29.161Z,62.40
2016-08-22T01:54:38.252Z,62.37
2016-08-22T01:55:30.783Z,62.36
2016-08-22T01:56:33.351Z,62.39
2016-08-22T01:57:32.694Z,62.40
2016-08-22T01:58:39.511Z,62.37
2016-08-22T01:59:38.555Z,62.41
2016-08-22T02:00:24.791Z,62.44
2016-08-22T02:01:32.764Z,62.41
2016-08-22T02:02:31.088Z,62.41
2016-08-22T02:03:28.925Z,62.42
2016-08-22T02:04:29.630Z,62.42
2016-08-22T02:05:40.323Z,62.40
2016-08-22T02:06:25.819Z,62.41
2016-08-22T02:07:34.174Z,62.42
2016-08-22T02:09:42.276Z,62.41
2016-08-22T02:10:38.436Z,62.42
2016-08-22T02:11:29.686Z,62.39
2016-08-22T02:12:29.251Z,62.38
2016-08-22T02:13:37.016Z,62.40
2016-08-22T02:14:21.633Z,62.41
2016-08-22T02:15:40.594Z,62.42
2016-08-22T02:16:31.888Z,62.41
2016-08-22T02:17:39.600Z,62.43
2016-08-22T02:18:33.601Z,62.41
2016-08-22T02:19:16.505Z,62.46
2016-08-22T02:20:27.395Z,62.42
2016-08-22T02:21:35.033Z,62.40
2016-08-22T02:22:30.514Z,62.44
2016-08-22T02:24:35.547Z,62.45
2016-08-22T02:25:25.108Z,62.42
2016-08-22T02:27:34.350Z,62.44
2016-08-22T02:28:28.391Z,62.41
2016-08-22T02:29:15.866Z,62.43
2016-08-22T02:30:36.219Z,62.44
2016-08-22T02:31:26.807Z,62.44
2016-08-22T02:32:40.583Z,62.40
2016-08-22T02:33:33.950Z,62.38
2016-08-22T02:34:30.930Z,62.40
2016-08-22T02:35:37.389Z,62.41
2016-08-22T02:36:34.089Z,62.40
2016-08-22T02:37:39.886Z,62.43
2016-08-22T02:39:15.547Z,62.42
2016-08-22T02:40:31.265Z,62.40
2016-08-22T02:41:31.187Z,62.38
2016-08-22T02:42:30.609Z,62.37
2016-08-22T02:43:31.571Z,62.37
2016-08-22T02:44:38.427Z,62.39
2016-08-22T02:45:38.933Z,62.40
2016-08-22T02:46:32.883Z,62.40
2016-08-22T02:47:28.458Z,62.38
2016-08-22T02:48:28.808Z,62.36
2016-08-22T02:49:30.911Z,62.40
2016-08-22T02:50:29.142Z,62.37
2016-08-22T02:51:36.363Z,62.36
2016-08-22T02:52:28.607Z,62.35
2016-08-22T02:54:38.612Z,62.36
2016-08-22T02:55:33.225Z,62.36
2016-08-22T02:56:41.111Z,62.36
2016-08-22T02:57:31.868Z,62.37
2016-08-22T02:58:29.288Z,62.40
2016-08-22T02:59:32.576Z,62.36
2016-08-22T03:00:22.173Z,62.37
2016-08-22T03:01:34.377Z,62.33
2016-08-22T03:04:33.584Z,62.39
2016-08-22T03:05:38.388Z,62.41
2016-08-22T03:06:38.354Z,62.36
2016-08-22T03:07:35.899Z,62.37
2016-08-22T03:08:34.611Z,62.35
2016-08-22T03:09:39.932Z,62.35
2016-08-22T03:10:33.089Z,62.37
2016-08-22T03:11:24.225Z,62.27
2016-08-22T03:12:31.891Z,62.36
2016-08-22T03:13:29.466Z,62.36
2016-08-22T03:14:29.299Z,62.25
2016-08-22T03:15:33.900Z,62.29
2016-08-22T03:16:27.482Z,62.34
2016-08-22T03:17:34.029Z,62.36
2016-08-22T03:18:27.553Z,62.55
2016-08-22T03:20:33.469Z,62.64
2016-08-22T03:21:31.458Z,62.63
2016-08-22T03:22:29.387Z,62.65
2016-08-22T03:23:28.680Z,62.66
2016-08-22T03:24:27.715Z,62.67
2016-08-22T03:26:32.671Z,62.77
2016-08-22T03:27:36.907Z,62.78
2016-08-22T03:28:31.860Z,62.78
2016-08-22T03:29:27.930Z,62.80
2016-08-22T03:30:32.060Z,62.81
2016-08-22T03:31:38.631Z,62.81
2016-08-22T03:32:33.017Z,62.83
2016-08-22T03:33:35.061Z,61.82
2016-08-22T03:34:32.681Z,61.61
2016-08-22T03:35:14.902Z,61.51
2016-08-22T03:36:23.485Z,61.45
2016-08-22T03:37:29.187Z,61.42
2016-08-22T03:38:31.860Z,61.41
2016-08-22T03:39:32.242Z,61.38
2016-08-22T03:40:27.900Z,61.37
2016-08-22T03:43:42.060Z,61.38
2016-08-22T03:44:39.476Z,61.38
2016-08-22T03:45:30.030Z,61.35
2016-08-22T03:46:30.533Z,62.32
2016-08-22T03:47:31.914Z,62.55
2016-08-22T03:48:34.324Z,62.67
2016-08-22T03:49:33.651Z,62.71
2016-08-22T03:51:29.009Z,62.78
2016-08-22T03:52:23.050Z,62.82
2016-08-22T03:53:30.725Z,62.83
2016-08-22T03:54:33.766Z,62.83
2016-08-22T03:55:36.854Z,62.84
2016-08-22T03:56:29.234Z,62.82
2016-08-22T03:57:27.933Z,62.84
2016-08-22T03:58:31.523Z,62.83
2016-08-22T03:59:39.864Z,62.83
2016-08-22T04:00:27.079Z,62.84
2016-08-22T04:01:28.995Z,62.83
2016-08-22T04:02:21.585Z,62.85
2016-08-22T04:03:35.226Z,62.85
2016-08-22T04:06:32.001Z,61.52
2016-08-22T04:07:31.293Z,61.73
2016-08-22T04:08:30.045Z,62.44
2016-08-22T04:09:28.913Z,62.63
2016-08-22T04:10:27.491Z,62.74
2016-08-22T04:11:28.063Z,62.75
2016-08-22T04:12:33.389Z,62.79
2016-08-22T04:13:40.590Z,62.83
2016-08-22T04:14:32.210Z,62.84
2016-08-22T04:15:39.612Z,62.85
2016-08-22T04:16:31.687Z,62.84
2016-08-22T04:17:29.853Z,62.84
2016-08-22T04:18:28.138Z,61.82
2016-08-22T04:19:29.126Z,61.63
2016-08-22T04:20:24.931Z,61.53
2016-08-22T04:21:40.413Z,61.47
2016-08-22T04:22:34.108Z,61.30
2016-08-22T04:23:31.508Z,61.41
2016-08-22T04:24:30.099Z,61.36
2016-08-22T04:25:30.260Z,61.35
2016-08-22T04:26:20.099Z,61.30
2016-08-22T04:27:20.293Z,61.57
2016-08-22T04:28:29.420Z,62.31
2016-08-22T04:29:36.791Z,62.55
2016-08-22T04:30:25.463Z,62.63
2016-08-22T04:31:31.265Z,62.70
2016-08-22T04:32:33.182Z,62.75
2016-08-22T04:33:28.291Z,62.79
2016-08-22T04:34:27.287Z,62.79
2016-08-22T04:35:34.278Z,62.83
2016-08-22T04:36:32.305Z,62.78
2016-08-22T04:37:25.911Z,62.82
2016-08-22T04:38:32.705Z,62.82
2016-08-22T04:39:29.072Z,62.80
2016-08-22T04:40:30.019Z,62.80
2016-08-22T04:41:27.883Z,62.83
2016-08-22T04:42:29.013Z,62.81
2016-08-22T04:43:26.197Z,62.82
2016-08-22T04:47:31.970Z,62.84
2016-08-22T04:48:29.057Z,62.80
2016-08-22T04:49:28.735Z,62.80
2016-08-22T04:50:25.581Z,62.81
2016-08-22T04:53:32.359Z,62.78
2016-08-22T04:54:38.568Z,62.79
2016-08-22T04:55:45.266Z,62.78
2016-08-22T04:56:35.622Z,62.77
2016-08-22T04:57:35.835Z,62.77
2016-08-22T04:58:35.473Z,62.77
2016-08-22T04:59:31.322Z,62.75
2016-08-22T05:00:32.385Z,62.73
2016-08-22T05:02:38.250Z,62.75
2016-08-22T05:03:48.076Z,62.79
2016-08-22T05:06:40.210Z,62.78
2016-08-22T05:07:30.500Z,62.79
2016-08-22T05:08:28.373Z,62.78
2016-08-22T05:09:33.476Z,62.80
2016-08-22T05:10:35.683Z,62.76
2016-08-22T05:12:38.685Z,62.80
2016-08-22T05:13:32.652Z,62.77
2016-08-22T05:14:23.981Z,62.73
2016-08-22T05:15:32.234Z,62.71
2016-08-22T05:16:29.275Z,62.74
2016-08-22T05:17:37.022Z,62.70
2016-08-22T05:18:28.576Z,62.72
2016-08-22T05:19:35.206Z,62.67
2016-08-22T05:21:32.191Z,62.70
2016-08-22T05:22:31.943Z,62.67
2016-08-22T05:23:30.790Z,62.65
2016-08-22T05:24:38.314Z,62.65
2016-08-22T05:25:27.928Z,62.66
2016-08-22T05:26:32.932Z,62.64
2016-08-22T05:27:32.709Z,62.64
2016-08-22T05:28:25.164Z,62.64
2016-08-22T05:29:29.807Z,62.64
2016-08-22T05:30:27.757Z,62.63
2016-08-22T05:31:34.788Z,62.64
2016-08-22T05:32:30.263Z,62.63
2016-08-22T05:33:32.122Z,62.65
2016-08-22T05:34:28.431Z,62.65
2016-08-22T05:35:28.538Z,62.63
2016-08-22T05:36:34.068Z,62.65
2016-08-22T05:38:33.658Z,62.63
2016-08-22T05:39:33.613Z,62.62
2016-08-22T05:40:25.203Z,62.64
2016-08-22T05:41:25.065Z,62.60
2016-08-22T05:42:33.723Z,62.59
2016-08-22T05:43:29.121Z,62.63
2016-08-22T05:45:24.664Z,62.61
2016-08-22T05:46:33.638Z,62.59
2016-08-22T05:47:30.946Z,62.63
2016-08-22T05:48:39.068Z,62.62
2016-08-22T05:49:33.107Z,62.60
2016-08-22T05:50:35.136Z,62.65
2016-08-22T05:51:28.384Z,61.61
2016-08-22T05:52:26.015Z,61.39
2016-08-22T05:53:25.666Z,61.51
2016-08-22T05:54:28.164Z,62.20
2016-08-22T05:55:27.854Z,62.39
2016-08-22T05:56:34.314Z,62.46
2016-08-22T05:57:28.295Z,62.52
2016-08-22T05:58:32.936Z,62.52
2016-08-22T05:59:32.689Z,62.57
2016-08-22T06:00:28.100Z,62.57
2016-08-22T06:01:33.669Z,62.59
2016-08-22T06:02:40.347Z,62.62
2016-08-22T06:03:33.237Z,62.57
2016-08-22T06:04:23.070Z,62.59
2016-08-22T06:05:28.310Z,62.58
2016-08-22T06:06:27.487Z,62.56
2016-08-22T06:07:27.538Z,62.62
2016-08-22T06:08:32.828Z,62.61
2016-08-22T06:11:27.801Z,62.63
2016-08-22T06:12:46.749Z,62.62
2016-08-22T06:13:28.302Z,62.61
2016-08-22T06:14:28.857Z,62.61
2016-08-22T06:15:34.435Z,62.63
2016-08-22T06:16:33.135Z,62.61
2016-08-22T06:17:34.605Z,62.62
2016-08-22T06:18:32.242Z,62.61
2016-08-22T06:19:27.813Z,62.60
2016-08-22T06:20:29.115Z,62.63
2016-08-22T06:21:29.114Z,62.63
2016-08-22T06:22:31.915Z,62.67
2016-08-22T06:23:35.232Z,62.68
2016-08-22T06:24:35.326Z,62.78
2016-08-22T06:25:28.611Z,62.79
2016-08-22T06:26:39.625Z,63.00
2016-08-22T06:27:33.949Z,63.14
2016-08-22T06:28:33.257Z,63.09
2016-08-22T06:29:29.437Z,63.41
2016-08-22T06:30:29.102Z,63.86
2016-08-22T06:31:35.608Z,63.93
2016-08-22T06:33:33.927Z,64.01
2016-08-22T06:34:28.571Z,64.08
2016-08-22T06:35:26.282Z,64.13
2016-08-22T06:36:30.793Z,64.18
2016-08-22T06:37:34.306Z,64.15
2016-08-22T06:38:32.877Z,64.10
2016-08-22T06:39:28.732Z,64.03
2016-08-22T06:42:31.701Z,63.85
2016-08-22T06:43:33.987Z,63.84
2016-08-22T06:44:42.274Z,63.73
2016-08-22T06:45:32.134Z,63.70
2016-08-22T06:46:37.382Z,63.63
2016-08-22T06:48:30.253Z,62.08
2016-08-22T06:49:32.225Z,63.50
2016-08-22T06:50:34.127Z,63.39
2016-08-22T06:51:35.232Z,62.53
2016-08-22T06:52:28.565Z,61.43
2016-08-22T06:54:42.135Z,59.56
2016-08-22T06:55:27.545Z,59.99
2016-08-22T06:56:25.273Z,59.68
2016-08-22T06:57:30.951Z,59.43
2016-08-22T06:58:28.510Z,60.20
2016-08-22T06:59:27.571Z,60.52
2016-08-22T07:01:34.135Z,62.11
2016-08-22T07:03:31.661Z,60.20
2016-08-22T07:04:30.137Z,58.24
2016-08-22T07:05:30.067Z,57.32
2016-08-22T07:06:33.173Z,57.59
2016-08-22T07:07:35.428Z,56.87
2016-08-22T07:08:24.997Z,57.27
2016-08-22T07:09:25.170Z,57.48
2016-08-22T07:10:26.335Z,57.07
2016-08-22T07:11:31.476Z,56.53
2016-08-22T07:12:38.246Z,56.07
2016-08-22T07:13:28.011Z,55.29
2016-08-22T07:14:27.424Z,55.93
2016-08-22T07:15:29.432Z,55.52
2016-08-22T07:16:33.518Z,55.56
2016-08-22T07:17:32.950Z,55.24
2016-08-22T07:18:32.682Z,55.97
2016-08-22T07:19:33.394Z,55.09
2016-08-22T07:20:33.816Z,55.21
2016-08-22T07:21:30.049Z,55.09
2016-08-22T07:22:33.409Z,57.93
2016-08-22T07:23:35.057Z,55.16
2016-08-22T07:24:41.944Z,55.04
2016-08-22T07:25:33.146Z,56.50
2016-08-22T07:26:29.205Z,56.20
2016-08-22T07:28:29.227Z,55.02
2016-08-22T07:29:28.494Z,55.77
2016-08-22T07:30:27.269Z,56.28
2016-08-22T07:31:26.862Z,56.43
2016-08-22T07:32:33.667Z,56.52
2016-08-22T07:33:40.657Z,56.75
2016-08-22T07:35:27.852Z,55.96
2016-08-22T07:36:29.497Z,54.97
2016-08-22T07:37:35.796Z,54.78
2016-08-22T07:38:28.432Z,54.50
2016-08-22T07:39:27.213Z,55.25
2016-08-22T07:40:26.839Z,54.98
2016-08-22T07:41:34.413Z,55.48
2016-08-22T07:42:32.083Z,54.72
2016-08-22T07:43:36.705Z,54.12
2016-08-22T07:44:27.513Z,53.67
2016-08-22T07:45:27.272Z,53.92
2016-08-22T07:46:27.388Z,53.85
2016-08-22T07:47:34.195Z,54.90
2016-08-22T07:48:28.038Z,55.03
2016-08-22T07:49:32.309Z,54.67
2016-08-22T07:50:33.170Z,55.30
2016-08-22T07:51:31.595Z,56.13
2016-08-22T07:52:30.708Z,54.94
2016-08-22T07:53:31.555Z,53.73
2016-08-22T07:54:28.145Z,54.20
2016-08-22T07:55:32.376Z,53.62
2016-08-22T07:56:28.826Z,53.18
2016-08-22T07:57:34.806Z,53.53
2016-08-22T07:58:25.230Z,53.94
2016-08-22T07:59:35.225Z,53.37
2016-08-22T08:00:31.386Z,53.84
2016-08-22T08:01:37.232Z,54.00
2016-08-22T08:02:25.614Z,54.18
2016-08-22T08:03:27.659Z,53.41
2016-08-22T08:04:27.950Z,53.41
2016-08-22T08:07:21.391Z,56.08
2016-08-22T08:08:30.664Z,55.52
2016-08-22T08:09:34.175Z,56.94
2016-08-22T08:10:36.092Z,56.37
2016-08-22T08:11:31.484Z,57.23
2016-08-22T08:12:26.445Z,58.11
2016-08-22T08:15:33.803Z,58.11
2016-08-22T08:16:30.047Z,58.22
2016-08-22T08:17:27.075Z,58.73
2016-08-22T08:18:32.687Z,58.88
2016-08-22T08:19:36.051Z,58.40
2016-08-22T08:20:26.837Z,57.94
2016-08-22T08:21:35.359Z,58.17
2016-08-22T08:23:31.548Z,58.69
2016-08-22T08:24:25.852Z,58.66
2016-08-22T08:25:30.495Z,58.34
2016-08-22T08:26:28.286Z,58.34
2016-08-22T08:27:28.179Z,58.35
2016-08-22T08:28:28.634Z,58.27
2016-08-22T08:30:29.956Z,58.65
2016-08-22T08:31:32.184Z,58.52
2016-08-22T08:32:39.218Z,58.94
2016-08-22T08:33:21.391Z,58.49
2016-08-22T08:34:29.147Z,58.57
2016-08-22T08:35:26.921Z,58.99
2016-08-22T08:36:28.033Z,58.87
2016-08-22T08:37:34.531Z,58.54
2016-08-22T08:39:32.225Z,58.15
2016-08-22T08:40:37.822Z,58.07
2016-08-22T08:41:28.034Z,58.21
2016-08-22T08:42:32.810Z,58.75
2016-08-22T08:43:27.915Z,58.53
2016-08-22T08:44:30.752Z,58.75
2016-08-22T08:45:34.197Z,58.86
2016-08-22T08:46:32.519Z,58.88
2016-08-22T08:47:39.701Z,58.51
2016-08-22T08:48:33.451Z,59.28
2016-08-22T08:49:28.148Z,59.13
2016-08-22T08:50:34.080Z,58.92
2016-08-22T08:51:28.245Z,58.98
2016-08-22T08:52:38.618Z,59.38
2016-08-22T08:53:27.823Z,59.54
2016-08-22T08:54:32.936Z,59.38
2016-08-22T08:55:31.592Z,59.33
2016-08-22T08:56:30.686Z,59.34
2016-08-22T08:57:23.925Z,59.17
2016-08-22T08:58:33.618Z,59.34
2016-08-22T08:59:33.482Z,59.61
2016-08-22T09:00:28.299Z,59.71
2016-08-22T09:01:27.390Z,59.61
2016-08-22T09:02:34.936Z,59.63
2016-08-22T09:03:30.806Z,59.67
2016-08-22T09:04:27.552Z,59.83
2016-08-22T09:05:37.394Z,58.90
2016-08-22T09:06:28.472Z,58.62
2016-08-22T09:07:33.595Z,58.45
2016-08-22T09:08:41.855Z,58.57
2016-08-22T09:09:29.047Z,58.49
2016-08-22T09:10:45.959Z,58.95
2016-08-22T09:11:39.616Z,59.36
2016-08-22T09:12:30.092Z,59.68
2016-08-22T09:13:29.746Z,59.75
2016-08-22T09:14:36.158Z,59.80
2016-08-22T09:15:31.916Z,59.84
2016-08-22T09:16:25.970Z,59.85
2016-08-22T09:17:34.601Z,59.93
2016-08-22T09:19:38.591Z,59.98
2016-08-22T09:20:30.768Z,59.97
2016-08-22T09:21:22.953Z,60.02
2016-08-22T09:22:32.148Z,59.96
2016-08-22T09:23:33.954Z,59.95
2016-08-22T09:24:34.801Z,60.07
2016-08-22T09:25:29.937Z,60.03
2016-08-22T09:26:28.227Z,60.16
2016-08-22T09:27:33.515Z,60.07
2016-08-22T09:29:29.620Z,60.15
2016-08-22T09:30:27.495Z,60.12
2016-08-22T09:31:30.395Z,60.10
2016-08-22T09:32:29.126Z,60.14
2016-08-22T09:33:28.398Z,60.05
2016-08-22T09:34:27.130Z,60.20
2016-08-22T09:35:27.473Z,60.20
2016-08-22T09:36:33.470Z,60.19
2016-08-22T09:37:30.754Z,60.26
2016-08-22T09:38:31.850Z,60.27
2016-08-22T09:39:26.541Z,60.22
2016-08-22T09:40:28.895Z,60.23
2016-08-22T09:41:28.501Z,60.25
2016-08-22T09:42:28.052Z,60.28
2016-08-22T09:43:28.393Z,60.28
2016-08-22T09:45:42.022Z,60.32
2016-08-22T09:46:26.043Z,60.34
2016-08-22T09:47:22.400Z,60.34
2016-08-22T09:48:21.968Z,60.34
2016-08-22T09:49:29.462Z,60.36
2016-08-22T09:50:27.303Z,60.35
2016-08-22T09:51:26.833Z,60.30
2016-08-22T09:52:33.989Z,60.32
2016-08-22T09:54:39.180Z,60.36
2016-08-22T09:55:35.821Z,60.37
2016-08-22T09:56:37.175Z,60.40
2016-08-22T09:57:26.412Z,60.38
2016-08-22T09:58:31.195Z,60.38
2016-08-22T09:59:31.272Z,60.42
2016-08-22T10:01:41.476Z,60.31
2016-08-22T10:02:31.323Z,60.38
2016-08-22T10:03:28.335Z,60.41
2016-08-22T10:04:33.850Z,60.44
2016-08-22T10:05:29.637Z,60.41
2016-08-22T10:06:27.542Z,60.38
2016-08-22T10:08:33.750Z,60.40
2016-08-22T10:09:36.441Z,60.26
2016-08-22T10:10:27.483Z,59.46
2016-08-22T10:12:36.667Z,59.19
2016-08-22T10:13:28.208Z,59.13
2016-08-22T10:14:32.925Z,58.96
2016-08-22T10:15:27.075Z,58.82
2016-08-22T10:16:40.311Z,59.21
2016-08-22T10:17:42.148Z,59.05
2016-08-22T10:18:23.690Z,58.95
2016-08-22T10:19:23.390Z,59.34
2016-08-22T10:20:29.267Z,59.05
2016-08-22T10:21:25.535Z,59.55
2016-08-22T10:22:22.036Z,60.34
2016-08-22T10:23:35.377Z,60.62
2016-08-22T10:24:27.257Z,60.76
2016-08-22T10:26:28.546Z,60.77
2016-08-22T10:27:30.541Z,60.94
2016-08-22T10:28:29.117Z,60.69
2016-08-22T10:29:29.755Z,60.79
2016-08-22T10:30:32.035Z,61.08
2016-08-22T10:31:32.345Z,60.94
2016-08-22T10:32:24.624Z,60.95
2016-08-22T10:33:38.256Z,61.08
2016-08-22T10:34:31.147Z,61.19
2016-08-22T10:35:23.477Z,60.97
2016-08-22T10:36:28.350Z,60.91
2016-08-22T10:37:27.138Z,60.61
2016-08-22T10:38:27.183Z,60.10
2016-08-22T10:39:27.157Z,59.70
2016-08-22T10:40:28.704Z,59.47
2016-08-22T10:42:26.505Z,59.88
2016-08-22T10:43:23.528Z,59.92
2016-08-22T10:44:25.886Z,59.74
2016-08-22T10:45:28.587Z,59.95
2016-08-22T10:46:30.962Z,60.30
2016-08-22T10:47:23.159Z,60.25
2016-08-22T10:48:41.113Z,60.56
2016-08-22T10:50:37.366Z,60.61
2016-08-22T10:51:36.440Z,61.02
2016-08-22T10:52:33.450Z,60.97
2016-08-22T10:53:28.674Z,61.20
2016-08-22T10:54:28.254Z,61.18
2016-08-22T10:55:33.490Z,61.23
2016-08-22T10:56:28.579Z,61.28
2016-08-22T10:59:30.788Z,61.20
2016-08-22T11:00:27.176Z,61.14
2016-08-22T11:01:27.580Z,61.17
2016-08-22T11:02:31.256Z,61.19
2016-08-22T11:03:27.148Z,60.35
2016-08-22T11:04:27.823Z,60.17
2016-08-22T11:05:41.711Z,59.95
2016-08-22T11:06:31.879Z,59.99
2016-08-22T11:07:27.680Z,60.88
2016-08-22T11:08:27.650Z,61.03
2016-08-22T11:09:28.300Z,61.09
2016-08-22T11:10:27.043Z,61.02
2016-08-22T11:11:27.280Z,61.17
2016-08-22T11:12:31.587Z,61.03
2016-08-22T11:13:33.456Z,61.08
2016-08-22T11:14:41.371Z,61.09
2016-08-22T11:15:30.186Z,61.19
2016-08-22T11:16:27.171Z,61.17
2016-08-22T11:17:28.118Z,61.06
2016-08-22T11:18:27.034Z,61.09
2016-08-22T11:19:35.291Z,60.84
2016-08-22T11:20:28.143Z,61.19
2016-08-22T11:22:34.200Z,61.16
2016-08-22T11:23:30.997Z,60.86
2016-08-22T11:24:32.364Z,61.06
2016-08-22T11:25:31.380Z,61.07
2016-08-22T11:26:27.904Z,61.10
2016-08-22T11:28:33.622Z,61.16
2016-08-22T11:29:41.961Z,61.14
2016-08-22T11:30:32.670Z,61.11
2016-08-22T11:31:31.033Z,61.16
2016-08-22T11:32:29.685Z,60.97
2016-08-22T11:33:29.235Z,61.18
2016-08-22T11:34:31.636Z,61.09
2016-08-22T11:35:26.341Z,61.19
2016-08-22T11:36:27.832Z,61.02
2016-08-22T11:37:28.433Z,61.13
2016-08-22T11:38:41.503Z,61.18
2016-08-22T11:39:31.138Z,61.17
2016-08-22T11:40:22.704Z,61.13
2016-08-22T11:41:29.479Z,61.10
2016-08-22T11:42:28.016Z,60.75
2016-08-22T11:43:37.556Z,60.99
2016-08-22T11:44:32.507Z,61.19
2016-08-22T11:45:34.195Z,61.20
2016-08-22T11:46:31.095Z,61.47
2016-08-22T11:47:24.125Z,60.87
2016-08-22T11:48:25.947Z,61.05
2016-08-22T11:49:32.726Z,61.12
2016-08-22T11:50:36.246Z,61.37
2016-08-22T11:51:28.720Z,61.54
2016-08-22T11:52:29.370Z,61.52
2016-08-22T11:53:34.207Z,61.50
2016-08-22T11:54:40.845Z,61.26
2016-08-22T11:55:42.832Z,61.29
2016-08-22T11:56:25.376Z,61.39
2016-08-22T11:57:29.011Z,61.49
2016-08-22T11:58:29.076Z,61.56
2016-08-22T11:59:35.974Z,61.62
2016-08-22T12:00:32.736Z,61.54
2016-08-22T12:01:41.087Z,61.55
2016-08-22T12:02:28.404Z,60.93
2016-08-22T12:04:29.206Z,61.03
2016-08-22T12:05:29.645Z,60.43
2016-08-22T12:06:27.728Z,60.09
2016-08-22T12:07:34.716Z,60.27
2016-08-22T12:08:26.618Z,60.64
2016-08-22T12:09:26.120Z,60.08
2016-08-22T12:10:38.407Z,60.42
2016-08-22T12:11:39.106Z,61.02
2016-08-22T12:12:31.235Z,60.91
2016-08-22T12:13:29.856Z,61.33
2016-08-22T12:14:28.466Z,61.36
2016-08-22T12:15:28.241Z,61.47
2016-08-22T12:16:32.467Z,61.54
2016-08-22T12:17:26.138Z,61.21
2016-08-22T12:18:25.201Z,61.46
2016-08-22T12:19:23.727Z,61.32
2016-08-22T12:20:31.117Z,61.23
2016-08-22T12:21:31.525Z,61.06
2016-08-22T12:22:28.891Z,61.01
2016-08-22T12:23:35.210Z,61.24
2016-08-22T12:24:33.697Z,61.35
2016-08-22T12:26:36.948Z,59.75
2016-08-22T12:27:30.746Z,60.74
2016-08-22T12:28:31.373Z,61.17
2016-08-22T12:29:29.281Z,60.86
2016-08-22T12:30:33.485Z,60.78
2016-08-22T12:31:31.599Z,60.99
2016-08-22T12:32:26.697Z,60.79
2016-08-22T12:33:41.767Z,61.13
2016-08-22T12:34:39.816Z,61.12
2016-08-22T12:35:31.709Z,61.02
2016-08-22T12:36:33.343Z,61.14
2016-08-22T12:37:33.301Z,60.96
2016-08-22T12:38:28.243Z,61.03
2016-08-22T12:39:36.926Z,61.07
2016-08-22T12:40:25.816Z,60.73
2016-08-22T12:42:23.823Z,61.09
2016-08-22T12:43:31.341Z,61.19
2016-08-22T12:44:23.278Z,61.13
2016-08-22T12:45:30.651Z,61.14
2016-08-22T12:46:17.406Z,61.07
2016-08-22T12:47:27.769Z,60.10
2016-08-22T12:48:26.143Z,59.84
2016-08-22T12:49:32.382Z,59.88
2016-08-22T12:50:34.607Z,60.66
2016-08-22T12:51:22.869Z,60.77
2016-08-22T12:52:29.979Z,60.83
2016-08-22T12:53:32.126Z,60.86
2016-08-22T12:54:26.953Z,59.89
2016-08-22T12:55:32.757Z,59.64
2016-08-22T12:56:27.301Z,59.52
2016-08-22T12:58:33.726Z,60.32
2016-08-22T12:59:42.132Z,60.54
2016-08-22T13:00:22.203Z,60.56
2016-08-22T13:01:32.999Z,60.59
2016-08-22T13:02:32.137Z,60.61
2016-08-22T13:03:30.467Z,60.64
2016-08-22T13:04:15.613Z,60.60
2016-08-22T13:05:29.687Z,60.64
2016-08-22T13:06:29.476Z,60.65
2016-08-22T13:07:28.767Z,60.63
2016-08-22T13:08:35.092Z,60.62
2016-08-22T13:09:41.990Z,60.60
2016-08-22T13:10:24.182Z,60.57
2016-08-22T13:11:23.600Z,60.58
2016-08-22T13:12:25.747Z,60.47
2016-08-22T13:13:29.928Z,60.51
2016-08-22T13:14:27.797Z,60.55
2016-08-22T13:15:27.806Z,60.59
2016-08-22T13:16:30.594Z,60.60
2016-08-22T13:17:40.399Z,60.61
2016-08-22T13:18:33.143Z,60.57
2016-08-22T13:19:36.649Z,60.53
2016-08-22T13:20:30.291Z,60.52
2016-08-22T13:21:28.708Z,60.54
2016-08-22T13:22:44.045Z,60.56
2016-08-22T13:23:25.441Z,60.59
2016-08-22T13:24:32.692Z,60.56
2016-08-22T13:25:53.547Z,60.57
2016-08-22T13:26:48.242Z,60.58
2016-08-22T13:27:40.947Z,60.55
2016-08-22T13:28:36.414Z,60.56
2016-08-22T13:29:51.417Z,60.58
2016-08-22T13:30:40.060Z,60.51
2016-08-22T13:31:49.400Z,60.58
2016-08-22T13:32:36.783Z,60.59
2016-08-22T13:34:00.072Z,60.58
2016-08-22T13:34:41.487Z,60.59
2016-08-22T13:35:40.265Z,60.58
2016-08-22T13:37:14.988Z,60.70
2016-08-22T13:37:50.027Z,60.64
2016-08-22T13:41:56.259Z,60.62
2016-08-22T13:42:32.988Z,60.72
2016-08-22T13:42:49.159Z,60.74
2016-08-22T13:42:55.017Z,60.72
2016-08-22T13:42:55.026Z,60.73
2016-08-22T13:43:44.918Z,60.77
2016-08-22T13:44:45.388Z,60.79
2016-08-22T13:45:45.047Z,60.80
2016-08-22T13:46:45.271Z,60.79
2016-08-22T13:47:52.588Z,60.78
2016-08-22T13:48:51.441Z,60.77
2016-08-22T13:49:49.611Z,60.76
2016-08-22T13:50:43.913Z,60.75
2016-08-22T13:51:45.688Z,59.81
2016-08-22T13:52:48.962Z,59.64
2016-08-22T13:53:45.377Z,60.21
2016-08-22T13:54:46.643Z,59.68
2016-08-22T13:55:49.858Z,60.34
2016-08-22T13:56:49.243Z,60.46
2016-08-22T13:57:51.030Z,59.63
2016-08-22T13:58:49.025Z,59.60
2016-08-22T13:59:43.660Z,59.20
2016-08-22T14:00:47.303Z,58.35
2016-08-22T14:01:50.971Z,58.05
2016-08-22T14:02:38.886Z,58.10
2016-08-22T14:03:48.275Z,57.97